createdAt,value
2017-11-26T00:00:10.355Z,7.97
2017-11-26T00:02:39.464Z,7.96
2017-11-26T00:05:07.769Z,7.92
2017-11-26T00:07:36.073Z,7.90
2017-11-26T00:10:04.365Z,7.87
2017-11-26T00:12:32.668Z,7.85
2017-11-26T00:15:00.972Z,7.85
2017-11-26T00:17:30.063Z,7.84
2017-11-26T00:19:59.136Z,7.82
2017-11-26T00:22:27.422Z,7.81
2017-11-26T00:24:55.736Z,7.80
2017-11-26T00:27:24.075Z,7.79
2017-11-26T00:29:52.392Z,7.77
2017-11-26T00:32:20.693Z,7.76
2017-11-26T00:34:48.998Z,7.74
2017-11-26T00:37:17.311Z,7.69
2017-11-26T00:39:45.619Z,7.68
2017-11-26T00:42:14.694Z,7.70
2017-11-26T00:44:43.004Z,7.69
2017-11-26T00:47:12.069Z,7.68
2017-11-26T00:49:40.395Z,7.68
2017-11-26T00:52:08.708Z,7.67
2017-11-26T00:54:37.019Z,7.66
2017-11-26T00:57:05.317Z,7.67
2017-11-26T00:59:33.630Z,7.69
2017-11-26T01:02:01.948Z,7.70
2017-11-26T01:04:30.258Z,7.66
2017-11-26T01:06:58.575Z,7.67
2017-11-26T01:09:26.882Z,7.70
2017-11-26T01:11:55.184Z,7.73
2017-11-26T01:14:23.478Z,7.76
2017-11-26T01:16:51.810Z,7.78
2017-11-26T01:19:20.108Z,7.81
2017-11-26T01:21:48.430Z,7.82
2017-11-26T01:24:16.756Z,7.82
2017-11-26T01:26:45.062Z,7.86
2017-11-26T01:29:13.358Z,7.88
2017-11-26T01:31:41.672Z,7.86
2017-11-26T01:34:10.742Z,7.87
2017-11-26T01:36:39.057Z,7.86
2017-11-26T01:39:08.142Z,7.88
2017-11-26T01:41:37.122Z,7.92
2017-11-26T01:44:05.418Z,7.94
2017-11-26T01:46:33.722Z,7.98
2017-11-26T01:49:02.018Z,8.03
2017-11-26T01:51:30.315Z,8.07
2017-11-26T01:53:58.882Z,8.10
2017-11-26T01:56:27.172Z,8.12
2017-11-26T01:58:55.473Z,8.12
2017-11-26T02:01:23.926Z,8.10
2017-11-26T02:03:59.074Z,8.13
2017-11-26T02:06:27.360Z,8.16
2017-11-26T02:08:55.668Z,8.16
2017-11-26T02:11:23.983Z,8.10
2017-11-26T02:13:53.092Z,8.05
2017-11-26T02:16:22.184Z,7.98
2017-11-26T02:18:50.775Z,7.93
2017-11-26T02:21:19.853Z,7.91
2017-11-26T02:23:48.157Z,7.93
2017-11-26T02:26:17.222Z,7.96
2017-11-26T02:28:45.561Z,7.97
2017-11-26T02:31:31.718Z,7.97
2017-11-26T02:34:18.626Z,7.97
2017-11-26T02:36:47.698Z,7.98
2017-11-26T02:39:15.997Z,7.99
2017-11-26T02:41:44.310Z,7.98
2017-11-26T02:44:12.612Z,7.97
2017-11-26T02:46:40.913Z,7.96
2017-11-26T02:49:09.982Z,7.97
2017-11-26T02:51:38.365Z,7.97
2017-11-26T02:54:06.655Z,7.99
2017-11-26T02:56:34.973Z,8.02
2017-11-26T02:59:03.616Z,8.02
2017-11-26T03:01:31.913Z,8.05
2017-11-26T03:04:00.238Z,8.05
2017-11-26T03:06:28.545Z,8.07
2017-11-26T03:08:57.602Z,8.08
2017-11-26T03:11:25.900Z,8.11
2017-11-26T03:13:54.210Z,8.12
2017-11-26T03:16:22.518Z,8.15
2017-11-26T03:18:50.833Z,8.21
2017-11-26T03:21:19.166Z,8.25
2017-11-26T03:23:47.471Z,8.27
2017-11-26T03:26:15.813Z,8.30
2017-11-26T03:28:44.220Z,8.33
2017-11-26T03:31:12.609Z,8.30
2017-11-26T03:33:40.916Z,8.28
2017-11-26T03:36:09.226Z,8.26
2017-11-26T03:38:38.310Z,8.25
2017-11-26T03:41:06.615Z,8.19
2017-11-26T03:43:35.928Z,8.14
2017-11-26T03:46:05.007Z,8.07
2017-11-26T03:48:33.315Z,8.00
2017-11-26T03:51:01.609Z,7.96
2017-11-26T03:53:29.926Z,7.93
2017-11-26T03:55:58.232Z,7.91
2017-11-26T03:58:26.536Z,7.90
2017-11-26T04:00:54.844Z,7.89
2017-11-26T04:03:23.161Z,7.91
2017-11-26T04:05:51.474Z,7.93
2017-11-26T04:08:20.551Z,7.95
2017-11-26T04:10:49.194Z,7.96
2017-11-26T04:13:17.557Z,7.97
2017-11-26T04:15:45.860Z,8.02
2017-11-26T04:18:14.539Z,8.03
2017-11-26T04:20:42.849Z,8.06
2017-11-26T04:23:11.415Z,8.07
2017-11-26T04:25:39.718Z,8.10
2017-11-26T04:28:08.036Z,8.11
2017-11-26T04:30:37.357Z,8.13
2017-11-26T04:33:06.457Z,8.15
2017-11-26T04:35:34.774Z,8.15
2017-11-26T04:38:03.098Z,8.15
2017-11-26T04:40:31.732Z,8.17
2017-11-26T04:43:00.402Z,8.21
2017-11-26T04:45:28.771Z,8.23
2017-11-26T04:47:57.082Z,8.25
2017-11-26T04:50:25.408Z,8.30
2017-11-26T04:52:53.749Z,8.31
2017-11-26T04:55:22.061Z,8.35
2017-11-26T04:57:50.366Z,8.38
2017-11-26T05:00:18.679Z,8.39
2017-11-26T05:02:47.012Z,8.40
2017-11-26T05:05:15.331Z,8.43
2017-11-26T05:07:44.400Z,8.45
2017-11-26T05:10:12.709Z,8.46
2017-11-26T05:12:41.757Z,8.49
2017-11-26T05:15:10.069Z,8.50
2017-11-26T05:17:38.373Z,8.50
2017-11-26T05:20:07.496Z,8.50
2017-11-26T05:22:35.815Z,8.51
2017-11-26T05:25:04.122Z,8.50
2017-11-26T05:27:32.410Z,8.51
2017-11-26T05:30:01.477Z,8.53
2017-11-26T05:32:29.777Z,8.54
2017-11-26T05:34:58.069Z,8.55
2017-11-26T05:37:27.144Z,8.56
2017-11-26T05:39:55.446Z,8.57
2017-11-26T05:42:23.782Z,8.59
2017-11-26T05:44:52.085Z,8.60
2017-11-26T05:47:20.404Z,8.61
2017-11-26T05:49:49.465Z,8.63
2017-11-26T05:52:17.778Z,8.65
2017-11-26T05:54:46.875Z,8.65
2017-11-26T05:57:15.943Z,8.66
2017-11-26T05:59:44.245Z,8.67
2017-11-26T06:02:12.545Z,8.67
2017-11-26T06:04:41.625Z,8.66
2017-11-26T06:07:10.722Z,8.67
2017-11-26T06:09:39.045Z,8.68
2017-11-26T06:12:07.361Z,8.69
2017-11-26T06:14:35.687Z,8.68
2017-11-26T06:17:04.764Z,8.68
2017-11-26T06:19:33.058Z,8.69
2017-11-26T06:22:02.128Z,8.68
2017-11-26T06:24:30.416Z,8.68
2017-11-26T06:26:58.735Z,8.69
2017-11-26T06:29:27.024Z,8.68
2017-11-26T06:31:55.360Z,8.69
2017-11-26T06:34:23.653Z,8.70
2017-11-26T06:36:51.953Z,8.70
2017-11-26T06:39:21.021Z,8.72
2017-11-26T06:41:49.322Z,8.73
2017-11-26T06:44:17.633Z,8.74
2017-11-26T06:46:45.913Z,8.74
2017-11-26T06:49:14.230Z,8.75
2017-11-26T06:51:42.512Z,8.76
2017-11-26T06:54:10.807Z,8.78
2017-11-26T06:56:39.119Z,8.78
2017-11-26T06:59:08.176Z,8.79
2017-11-26T07:01:36.470Z,8.80
2017-11-26T07:04:04.776Z,8.81
2017-11-26T07:06:33.845Z,8.81
2017-11-26T07:09:03.010Z,8.82
2017-11-26T07:11:31.316Z,8.82
2017-11-26T07:13:59.663Z,8.76
2017-11-26T07:16:27.985Z,8.64
2017-11-26T07:18:56.306Z,8.48
2017-11-26T07:21:25.392Z,8.39
2017-11-26T07:23:53.720Z,8.30
2017-11-26T07:26:22.049Z,8.24
2017-11-26T07:28:50.349Z,8.19
2017-11-26T07:31:19.422Z,8.17
2017-11-26T07:33:47.743Z,8.14
2017-11-26T07:36:16.057Z,8.13
2017-11-26T07:38:44.532Z,8.14
2017-11-26T07:41:12.829Z,8.15
2017-11-26T07:43:41.170Z,8.15
2017-11-26T07:46:10.253Z,8.17
2017-11-26T07:48:39.323Z,8.19
2017-11-26T07:51:07.637Z,8.23
2017-11-26T07:53:35.964Z,8.27
2017-11-26T07:56:04.261Z,8.29
2017-11-26T07:58:32.594Z,8.27
2017-11-26T08:01:01.680Z,8.28
2017-11-26T08:03:30.833Z,8.27
2017-11-26T08:05:59.159Z,8.25
2017-11-26T08:08:27.488Z,8.26
2017-11-26T08:10:55.810Z,8.29
2017-11-26T08:13:24.110Z,8.32
2017-11-26T08:15:53.190Z,8.34
2017-11-26T08:18:21.518Z,8.36
2017-11-26T08:20:49.819Z,8.37
2017-11-26T08:23:18.125Z,8.40
2017-11-26T08:25:46.457Z,8.42
2017-11-26T08:28:14.754Z,8.45
2017-11-26T08:30:43.067Z,8.48
2017-11-26T08:33:11.386Z,8.52
2017-11-26T08:35:40.823Z,8.57
2017-11-26T08:38:09.192Z,8.62
2017-11-26T08:40:37.539Z,8.68
2017-11-26T08:43:06.648Z,8.74
2017-11-26T08:45:34.951Z,8.78
2017-11-26T08:48:03.299Z,8.81
2017-11-26T08:50:31.658Z,8.83
2017-11-26T08:52:59.964Z,8.86
2017-11-26T08:55:28.608Z,8.89
2017-11-26T08:57:56.911Z,8.93
2017-11-26T09:00:25.219Z,8.95
2017-11-26T09:02:53.637Z,8.98
2017-11-26T09:05:21.949Z,9.01
2017-11-26T09:07:53.266Z,9.02
2017-11-26T09:10:21.567Z,9.04
2017-11-26T09:12:49.896Z,9.07
2017-11-26T09:15:18.224Z,9.13
2017-11-26T09:17:46.538Z,9.19
2017-11-26T09:20:14.861Z,9.26
2017-11-26T09:22:43.924Z,9.27
2017-11-26T09:25:12.604Z,9.30
2017-11-26T09:27:40.954Z,9.33
2017-11-26T09:30:09.288Z,9.36
2017-11-26T09:32:37.922Z,9.33
2017-11-26T09:35:06.289Z,9.23
2017-11-26T09:37:35.472Z,9.14
2017-11-26T09:40:03.877Z,9.09
2017-11-26T09:42:33.015Z,9.10
2017-11-26T09:45:01.331Z,9.13
2017-11-26T09:47:29.689Z,9.19
2017-11-26T09:49:58.152Z,9.24
2017-11-26T09:52:26.460Z,9.27
2017-11-26T09:54:54.765Z,9.32
2017-11-26T09:57:23.102Z,9.40
2017-11-26T09:59:51.437Z,9.52
2017-11-26T10:02:19.749Z,9.67
2017-11-26T10:04:48.834Z,9.79
2017-11-26T10:07:17.226Z,9.87
2017-11-26T10:09:45.624Z,9.92
2017-11-26T10:12:13.950Z,10.00
2017-11-26T10:14:42.285Z,10.14
2017-11-26T10:17:10.589Z,10.24
2017-11-26T10:19:39.096Z,10.30
2017-11-26T10:22:07.454Z,10.34
2017-11-26T10:24:35.763Z,10.42
2017-11-26T10:27:04.071Z,10.50
2017-11-26T10:29:32.392Z,10.62
2017-11-26T10:32:00.714Z,10.70
2017-11-26T10:34:29.482Z,10.70
2017-11-26T10:39:25.469Z,10.85
2017-11-26T10:41:54.554Z,10.99
2017-11-26T10:44:22.844Z,11.13
2017-11-26T10:46:51.215Z,11.10
2017-11-26T10:49:19.511Z,10.95
2017-11-26T10:51:47.826Z,10.80
2017-11-26T10:54:16.138Z,10.74
2017-11-26T10:56:44.470Z,10.71
2017-11-26T10:59:13.528Z,10.67
2017-11-26T11:01:41.846Z,10.68
2017-11-26T11:04:10.913Z,10.74
2017-11-26T11:06:39.215Z,10.76
2017-11-26T11:09:07.537Z,10.75
2017-11-26T11:11:35.848Z,10.73
2017-11-26T11:14:04.168Z,10.66
2017-11-26T11:16:32.483Z,10.54
2017-11-26T11:19:00.808Z,10.44
2017-11-26T11:21:29.108Z,10.41
2017-11-26T11:24:01.798Z,10.41
2017-11-26T11:26:30.865Z,10.37
2017-11-26T11:28:59.192Z,10.32
2017-11-26T11:31:27.520Z,10.25
2017-11-26T11:33:56.590Z,10.23
2017-11-26T11:36:24.881Z,10.16
2017-11-26T11:38:55.915Z,9.89
2017-11-26T11:41:24.301Z,9.64
2017-11-26T11:43:52.612Z,9.53
2017-11-26T11:46:20.965Z,9.48
2017-11-26T11:48:50.492Z,9.42
2017-11-26T11:51:18.789Z,9.37
2017-11-26T11:53:47.123Z,9.45
2017-11-26T11:56:15.420Z,9.59
2017-11-26T11:58:43.725Z,9.73
2017-11-26T12:01:12.004Z,9.78
2017-11-26T12:03:40.305Z,9.73
2017-11-26T12:06:08.613Z,9.66
2017-11-26T12:08:37.729Z,9.60
2017-11-26T12:11:06.025Z,9.53
2017-11-26T12:13:34.361Z,9.54
2017-11-26T12:16:03.430Z,9.63
2017-11-26T12:18:31.719Z,9.73
2017-11-26T12:21:00.791Z,9.83
2017-11-26T12:23:29.080Z,9.79
2017-11-26T12:25:57.378Z,9.64
2017-11-26T12:28:26.452Z,9.52
2017-11-26T12:30:54.761Z,9.51
2017-11-26T12:33:23.156Z,9.73
2017-11-26T12:35:51.447Z,9.95
2017-11-26T12:38:19.760Z,10.16
2017-11-26T12:40:48.058Z,10.29
2017-11-26T12:43:16.400Z,10.37
2017-11-26T12:45:45.480Z,10.40
2017-11-26T12:48:13.773Z,10.44
2017-11-26T12:50:42.076Z,10.44
2017-11-26T12:53:10.397Z,10.46
2017-11-26T12:55:38.696Z,10.48
2017-11-26T12:58:06.991Z,10.51
2017-11-26T13:00:35.339Z,10.55
2017-11-26T13:03:03.633Z,10.62
2017-11-26T13:05:31.930Z,10.66
2017-11-26T13:08:00.241Z,10.63
2017-11-26T13:10:29.322Z,10.60
2017-11-26T13:15:30.594Z,10.56
2017-11-26T13:17:59.743Z,10.61
2017-11-26T13:20:28.243Z,10.73
2017-11-26T13:22:56.561Z,10.77
2017-11-26T13:25:24.909Z,10.80
2017-11-26T13:27:53.213Z,10.88
2017-11-26T13:30:22.375Z,10.77
2017-11-26T13:32:50.684Z,10.70
2017-11-26T13:35:19.003Z,10.70
2017-11-26T13:37:48.132Z,10.70
2017-11-26T13:40:16.508Z,10.67
2017-11-26T13:42:44.809Z,10.55
2017-11-26T13:45:13.142Z,10.46
2017-11-26T13:47:42.262Z,10.37
2017-11-26T13:50:10.580Z,10.30
2017-11-26T13:52:38.895Z,10.23
2017-11-26T13:55:07.988Z,10.14
2017-11-26T13:57:37.142Z,9.97
2017-11-26T14:00:05.467Z,9.85
2017-11-26T14:02:33.777Z,9.79
2017-11-26T14:05:02.894Z,9.79
2017-11-26T14:07:31.196Z,9.75
2017-11-26T14:09:59.510Z,9.72
2017-11-26T14:12:28.087Z,9.75
2017-11-26T14:14:56.416Z,9.73
2017-11-26T14:17:26.246Z,9.66
2017-11-26T14:19:54.554Z,9.46
2017-11-26T14:22:22.855Z,9.43
2017-11-26T14:24:51.174Z,9.65
2017-11-26T14:27:19.492Z,9.65
2017-11-26T14:29:47.788Z,9.62
2017-11-26T14:32:16.965Z,9.57
2017-11-26T14:34:45.267Z,9.51
2017-11-26T14:37:13.663Z,9.48
2017-11-26T14:39:42.065Z,9.46
2017-11-26T14:42:10.420Z,9.43
2017-11-26T14:44:39.494Z,9.39
2017-11-26T14:47:07.808Z,9.29
2017-11-26T14:49:36.128Z,9.17
2017-11-26T14:55:41.468Z,8.72
2017-11-26T14:58:09.772Z,8.69
2017-11-26T15:00:38.919Z,8.78
2017-11-26T15:03:07.281Z,8.77
2017-11-26T15:05:35.629Z,8.75
2017-11-26T15:08:04.078Z,8.75
2017-11-26T15:10:32.431Z,8.79
2017-11-26T15:13:00.742Z,8.80
2017-11-26T15:15:29.068Z,8.81
2017-11-26T15:17:58.163Z,8.83
2017-11-26T15:20:27.276Z,8.84
2017-11-26T15:22:55.596Z,8.83
2017-11-26T15:25:24.089Z,8.84
2017-11-26T15:27:52.424Z,8.88
2017-11-26T15:30:20.722Z,8.82
2017-11-26T15:32:49.074Z,8.84
2017-11-26T15:35:18.766Z,8.84
2017-11-26T15:37:47.296Z,8.82
2017-11-26T15:40:15.667Z,8.81
2017-11-26T15:42:44.037Z,8.80
2017-11-26T15:45:13.269Z,8.63
2017-11-26T15:47:41.697Z,8.28
2017-11-26T15:50:11.521Z,8.09
2017-11-26T15:52:39.855Z,7.94
2017-11-26T15:55:08.168Z,7.80
2017-11-26T15:57:36.498Z,7.73
2017-11-26T16:00:04.798Z,7.70
2017-11-26T16:02:34.771Z,7.64
2017-11-26T16:05:03.879Z,7.55
2017-11-26T16:07:33.000Z,7.55
2017-11-26T16:10:01.297Z,7.64
2017-11-26T16:12:29.620Z,7.67
2017-11-26T16:14:58.095Z,7.67
2017-11-26T16:17:26.474Z,7.59
2017-11-26T16:19:56.181Z,7.60
2017-11-26T16:22:24.491Z,7.60
2017-11-26T16:24:53.616Z,7.61
2017-11-26T16:27:21.923Z,7.63
2017-11-26T16:29:50.235Z,7.65
2017-11-26T16:32:18.666Z,7.71
2017-11-26T16:34:46.981Z,7.82
2017-11-26T16:37:15.281Z,7.94
2017-11-26T16:39:43.588Z,8.02
2017-11-26T16:42:12.707Z,8.05
2017-11-26T16:44:41.063Z,8.02
2017-11-26T16:47:10.153Z,7.99
2017-11-26T16:49:39.217Z,8.03
2017-11-26T16:52:07.511Z,8.04
2017-11-26T16:54:37.370Z,8.03
2017-11-26T16:57:05.685Z,8.04
2017-11-26T16:59:33.997Z,7.97
2017-11-26T17:02:02.317Z,7.94
2017-11-26T17:04:30.643Z,7.91
2017-11-26T17:06:58.958Z,7.86
2017-11-26T17:09:28.245Z,7.86
2017-11-26T17:11:56.566Z,7.89
2017-11-26T17:14:24.884Z,7.93
2017-11-26T17:16:59.954Z,7.98
2017-11-26T17:19:28.284Z,8.04
2017-11-26T17:21:57.463Z,8.09
2017-11-26T17:24:25.933Z,8.11
2017-11-26T17:26:54.265Z,8.15
2017-11-26T17:29:22.820Z,8.20
2017-11-26T17:31:51.148Z,8.22
2017-11-26T17:34:19.449Z,8.24
2017-11-26T17:36:48.520Z,8.22
2017-11-26T17:39:16.812Z,8.20
2017-11-26T17:41:45.183Z,8.19
2017-11-26T17:44:13.547Z,8.14
2017-11-26T17:46:41.947Z,8.11
2017-11-26T17:49:11.229Z,8.11
2017-11-26T17:51:39.538Z,8.14
2017-11-26T17:54:08.597Z,8.14
2017-11-26T17:56:37.699Z,8.12
2017-11-26T17:59:06.036Z,8.16
2017-11-26T18:01:35.115Z,8.30
2017-11-26T18:04:04.972Z,8.45
2017-11-26T18:06:33.355Z,8.59
2017-11-26T18:09:01.801Z,8.67
2017-11-26T18:11:30.311Z,8.69
2017-11-26T18:13:58.639Z,8.73
2017-11-26T18:16:26.970Z,8.84
2017-11-26T18:18:55.301Z,8.97
2017-11-26T18:21:23.592Z,9.12
2017-11-26T18:23:51.934Z,9.14
2017-11-26T18:26:20.254Z,9.21
2017-11-26T18:28:48.578Z,9.25
2017-11-26T18:31:17.651Z,9.26
2017-11-26T18:33:46.732Z,9.29
2017-11-26T18:36:15.063Z,9.20
2017-11-26T18:38:43.393Z,8.89
2017-11-26T18:41:12.461Z,8.51
2017-11-26T18:43:40.778Z,8.15
2017-11-26T18:46:09.705Z,7.98
2017-11-26T18:48:38.010Z,7.95
2017-11-26T18:51:06.302Z,7.96
2017-11-26T18:53:34.605Z,7.85
2017-11-26T18:56:02.948Z,7.79
2017-11-26T18:58:31.279Z,7.80
2017-11-26T19:01:00.373Z,7.88
2017-11-26T19:03:28.726Z,7.94
2017-11-26T19:05:57.026Z,7.95
2017-11-26T19:08:25.399Z,7.96
2017-11-26T19:10:53.825Z,7.93
2017-11-26T19:13:22.906Z,7.98
2017-11-26T19:15:51.248Z,8.01
2017-11-26T19:18:19.750Z,8.01
2017-11-26T19:20:48.079Z,8.04
2017-11-26T19:23:17.152Z,8.03
2017-11-26T19:25:46.239Z,8.07
2017-11-26T19:28:14.760Z,8.09
2017-11-26T19:30:43.113Z,8.05
2017-11-26T19:33:12.175Z,8.01
2017-11-26T19:35:40.477Z,7.95
2017-11-26T19:38:09.534Z,7.91
2017-11-26T19:40:37.873Z,7.85
2017-11-26T19:43:06.184Z,7.81
2017-11-26T19:45:34.519Z,7.82
2017-11-26T19:48:02.975Z,7.83
2017-11-26T19:50:31.311Z,7.85
2017-11-26T19:53:00.364Z,7.83
2017-11-26T19:55:28.673Z,7.81
2017-11-26T19:57:57.753Z,7.82
2017-11-26T20:00:26.068Z,7.81
2017-11-26T20:02:55.146Z,7.79
2017-11-26T20:05:23.489Z,7.77
2017-11-26T20:07:51.792Z,7.78
2017-11-26T20:10:20.102Z,7.78
2017-11-26T20:12:48.412Z,7.82
2017-11-26T20:15:17.677Z,7.86
2017-11-26T20:17:45.995Z,7.86
2017-11-26T20:20:14.301Z,7.84
2017-11-26T20:22:42.608Z,7.83
2017-11-26T20:25:10.900Z,7.84
2017-11-26T20:27:39.226Z,7.85
2017-11-26T20:30:07.526Z,7.86
2017-11-26T20:32:35.839Z,7.89
2017-11-26T20:35:05.601Z,7.93
2017-11-26T20:37:33.907Z,7.98
2017-11-26T20:40:02.221Z,7.98
2017-11-26T20:42:31.352Z,8.02
2017-11-26T20:44:59.653Z,8.07
2017-11-26T20:47:28.170Z,8.06
2017-11-26T20:49:56.559Z,8.03
2017-11-26T20:52:25.695Z,7.95
2017-11-26T20:54:54.056Z,7.88
2017-11-26T20:57:22.372Z,7.87
2017-11-26T20:59:51.618Z,7.83
2017-11-26T21:02:20.736Z,7.82
2017-11-26T21:04:49.597Z,7.80
2017-11-26T21:07:17.943Z,7.81
2017-11-26T21:09:46.288Z,7.83
2017-11-26T21:12:14.633Z,7.85
2017-11-26T21:14:42.932Z,7.88
2017-11-26T21:17:12.742Z,7.93
2017-11-26T21:19:41.062Z,7.92
2017-11-26T21:22:10.758Z,7.97
2017-11-26T21:24:39.119Z,7.97
2017-11-26T21:27:07.418Z,7.97
2017-11-26T21:29:35.745Z,7.97
2017-11-26T21:32:04.053Z,7.82
2017-11-26T21:34:32.365Z,7.59
2017-11-26T21:37:00.685Z,7.28
2017-11-26T21:39:28.988Z,7.08
2017-11-26T21:41:57.350Z,6.96
2017-11-26T21:44:25.706Z,6.93
2017-11-26T21:46:54.811Z,6.97
2017-11-26T21:49:23.122Z,7.04
2017-11-26T21:51:52.081Z,7.11
2017-11-26T21:54:21.144Z,7.16
2017-11-26T21:56:49.464Z,7.19
2017-11-26T21:59:17.782Z,7.20
2017-11-26T22:01:46.089Z,7.23
2017-11-26T22:04:14.399Z,7.21
2017-11-26T22:06:43.456Z,7.20
2017-11-26T22:09:11.812Z,7.13
2017-11-26T22:11:40.119Z,7.12
2017-11-26T22:14:08.434Z,7.13
2017-11-26T22:16:37.510Z,7.18
2017-11-26T22:19:07.242Z,7.23
2017-11-26T22:21:36.298Z,7.26
2017-11-26T22:24:04.595Z,7.31
2017-11-26T22:26:33.059Z,7.29
2017-11-26T22:29:01.367Z,7.21
2017-11-26T22:31:29.677Z,7.26
2017-11-26T22:33:58.780Z,7.27
2017-11-26T22:36:27.101Z,7.26
2017-11-26T22:38:55.398Z,7.31
2017-11-26T22:41:23.718Z,7.40
2017-11-26T22:43:52.800Z,7.45
2017-11-26T22:46:21.107Z,7.45
2017-11-26T22:48:49.420Z,7.46
2017-11-26T22:51:17.726Z,7.48
2017-11-26T22:53:46.030Z,7.53
2017-11-26T22:56:15.118Z,7.56
2017-11-26T22:58:44.200Z,7.57
2017-11-26T23:01:12.507Z,7.57
2017-11-26T23:03:41.589Z,7.56
2017-11-26T23:06:10.663Z,7.53
2017-11-26T23:08:38.979Z,7.52
2017-11-26T23:11:07.298Z,7.50
2017-11-26T23:13:35.733Z,7.51
2017-11-26T23:16:04.063Z,7.49
2017-11-26T23:18:32.372Z,7.45
2017-11-26T23:21:00.676Z,7.34
2017-11-26T23:23:29.742Z,7.21
2017-11-26T23:25:58.058Z,7.11
2017-11-26T23:28:26.370Z,7.15
2017-11-26T23:30:54.684Z,7.11
2017-11-26T23:33:22.978Z,7.16
2017-11-26T23:35:51.293Z,7.21
2017-11-26T23:38:20.444Z,7.26
2017-11-26T23:40:48.746Z,7.27
2017-11-26T23:43:17.142Z,7.31
2017-11-26T23:45:45.470Z,7.24
2017-11-26T23:48:13.776Z,7.24
2017-11-26T23:50:42.066Z,7.24
2017-11-26T23:53:10.370Z,7.25
2017-11-26T23:55:38.747Z,7.26
2017-11-26T23:58:08.561Z,7.24
